createdAt,value
2022-09-25T00:00:03.779Z,16.18
2022-09-25T00:02:08.183Z,16.11
2022-09-25T00:04:13.172Z,16.10
2022-09-25T00:06:18.156Z,16.10
2022-09-25T00:08:23.895Z,16.11
2022-09-25T00:10:30.122Z,16.11
2022-09-25T00:12:36.960Z,16.13
2022-09-25T00:14:38.962Z,16.08
2022-09-25T00:16:42.722Z,16.04
2022-09-25T00:19:03.254Z,16.05
2022-09-25T00:21:07.490Z,15.90
2022-09-25T00:23:12.359Z,15.94
2022-09-25T00:25:18.338Z,15.97
2022-09-25T00:27:20.638Z,15.96
2022-09-25T00:29:24.110Z,15.95
2022-09-25T00:31:26.358Z,15.85
2022-09-25T00:33:30.591Z,15.85
2022-09-25T00:35:35.368Z,15.83
2022-09-25T00:37:37.617Z,15.83
2022-09-25T00:39:46.634Z,15.71
2022-09-25T00:41:48.527Z,15.69
2022-09-25T00:43:56.386Z,15.64
2022-09-25T00:46:02.205Z,15.65
2022-09-25T00:48:17.847Z,15.64
2022-09-25T00:50:56.278Z,15.65
2022-09-25T00:53:15.062Z,15.66
2022-09-25T00:55:20.824Z,15.58
2022-09-25T00:58:02.696Z,15.61
2022-09-25T01:00:17.697Z,15.62
2022-09-25T01:02:34.146Z,15.58
2022-09-25T01:04:38.393Z,15.48
2022-09-25T01:06:41.782Z,15.47
2022-09-25T01:08:49.241Z,15.45
2022-09-25T01:11:01.364Z,15.39
2022-09-25T01:13:25.992Z,15.40
2022-09-25T01:15:43.397Z,15.41
2022-09-25T01:18:42.411Z,15.41
2022-09-25T01:20:58.895Z,15.37
2022-09-25T01:23:38.191Z,15.28
2022-09-25T01:26:15.893Z,15.33
2022-09-25T01:28:36.989Z,15.25
2022-09-25T01:30:53.070Z,15.29
2022-09-25T01:33:32.879Z,15.24
2022-09-25T01:36:00.723Z,15.17
2022-09-25T01:38:22.203Z,15.04
2022-09-25T01:40:49.943Z,15.04
2022-09-25T01:43:02.657Z,15.10
2022-09-25T01:45:09.877Z,15.07
2022-09-25T01:47:22.432Z,14.91
2022-09-25T01:49:36.962Z,14.92
2022-09-25T01:51:46.789Z,14.92
2022-09-25T01:53:54.169Z,14.91
2022-09-25T01:56:01.129Z,14.88
2022-09-25T01:58:40.817Z,14.89
2022-09-25T02:00:52.414Z,14.80
2022-09-25T02:03:08.134Z,14.76
2022-09-25T02:05:18.818Z,14.77
2022-09-25T02:07:31.757Z,14.66
2022-09-25T02:09:54.138Z,14.67
2022-09-25T02:12:01.432Z,14.68
2022-09-25T02:14:25.793Z,14.61
2022-09-25T02:16:38.982Z,14.60
2022-09-25T02:19:01.158Z,14.56
2022-09-25T02:21:26.999Z,14.57
2022-09-25T02:24:05.732Z,14.52
2022-09-25T02:26:14.910Z,14.55
2022-09-25T02:28:20.944Z,14.51
2022-09-25T02:30:22.924Z,14.50
2022-09-25T02:32:34.370Z,14.49
2022-09-25T02:34:37.593Z,14.37
2022-09-25T02:36:40.237Z,14.45
2022-09-25T02:38:51.374Z,14.40
2022-09-25T02:41:16.272Z,14.36
2022-09-25T02:43:29.159Z,14.26
2022-09-25T02:45:54.895Z,14.29
2022-09-25T02:48:21.528Z,14.24
2022-09-25T02:50:55.103Z,14.22
2022-09-25T02:53:18.767Z,14.20
2022-09-25T02:55:51.256Z,14.22
2022-09-25T02:57:59.557Z,14.22
2022-09-25T03:00:09.623Z,14.16
2022-09-25T03:02:13.416Z,14.18
2022-09-25T03:04:18.028Z,14.14
2022-09-25T03:06:22.037Z,14.08
2022-09-25T03:08:38.457Z,14.05
2022-09-25T03:10:49.639Z,14.05
2022-09-25T03:12:56.828Z,14.04
2022-09-25T03:15:03.312Z,14.03
2022-09-25T03:17:11.117Z,14.02
2022-09-25T03:19:14.229Z,13.95
2022-09-25T03:21:20.274Z,13.95
2022-09-25T03:23:24.140Z,13.98
2022-09-25T03:25:31.157Z,13.91
2022-09-25T03:27:34.427Z,13.95
2022-09-25T03:29:36.626Z,13.95
2022-09-25T03:31:39.859Z,13.89
2022-09-25T03:33:44.165Z,13.91
2022-09-25T03:35:46.996Z,13.92
2022-09-25T03:37:48.717Z,13.90
2022-09-25T03:39:51.853Z,13.90
2022-09-25T03:41:53.826Z,13.87
2022-09-25T03:43:56.851Z,13.86
2022-09-25T03:45:59.046Z,13.82
2022-09-25T03:48:02.888Z,13.86
2022-09-25T03:50:05.925Z,13.84
2022-09-25T03:52:14.010Z,13.77
2022-09-25T03:54:21.347Z,13.81
2022-09-25T03:56:27.365Z,13.82
2022-09-25T03:58:29.571Z,13.84
2022-09-25T04:00:31.508Z,13.80
2022-09-25T04:02:33.459Z,13.83
2022-09-25T04:04:38.064Z,13.81
2022-09-25T04:06:40.880Z,13.83
2022-09-25T04:08:45.282Z,13.81
2022-09-25T04:10:51.075Z,13.81
2022-09-25T04:12:55.436Z,13.78
2022-09-25T04:14:59.421Z,13.72
2022-09-25T04:17:03.787Z,13.65
2022-09-25T04:19:07.127Z,13.70
2022-09-25T04:21:13.973Z,13.61
2022-09-25T04:23:16.042Z,13.61
2022-09-25T04:25:24.455Z,13.61
2022-09-25T04:27:28.650Z,13.63
2022-09-25T04:29:32.499Z,13.51
2022-09-25T04:31:34.655Z,13.54
2022-09-25T04:33:49.192Z,13.54
2022-09-25T04:35:51.427Z,13.49
2022-09-25T04:37:53.318Z,13.51
2022-09-25T04:39:58.417Z,13.48
2022-09-25T04:42:00.540Z,13.46
2022-09-25T04:44:43.649Z,13.48
2022-09-25T04:46:43.878Z,13.37
2022-09-25T04:48:49.485Z,13.43
2022-09-25T04:50:55.741Z,13.43
2022-09-25T04:52:58.644Z,13.42
2022-09-25T04:55:05.066Z,13.43
2022-09-25T04:57:07.691Z,13.47
2022-09-25T04:59:10.750Z,13.46
2022-09-25T05:01:12.737Z,13.45
2022-09-25T05:03:15.870Z,13.47
2022-09-25T05:05:19.371Z,13.46
2022-09-25T05:07:22.446Z,13.43
2022-09-25T05:09:25.617Z,13.36
2022-09-25T05:11:27.711Z,13.29
2022-09-25T05:13:30.446Z,13.32
2022-09-25T05:15:38.696Z,13.32
2022-09-25T05:17:40.774Z,13.16
2022-09-25T05:19:43.544Z,13.19
2022-09-25T05:21:46.168Z,13.19
2022-09-25T05:23:48.323Z,13.22
2022-09-25T05:26:03.844Z,13.21
2022-09-25T05:28:07.258Z,13.24
2022-09-25T05:30:12.199Z,13.20
2022-09-25T05:32:15.403Z,13.20
2022-09-25T05:34:17.851Z,13.22
2022-09-25T05:36:23.554Z,13.19
2022-09-25T05:38:25.603Z,13.20
2022-09-25T05:40:27.734Z,13.13
2022-09-25T05:42:31.059Z,13.15
2022-09-25T05:44:33.033Z,13.13
2022-09-25T05:46:34.755Z,13.13
2022-09-25T05:48:37.098Z,13.14
2022-09-25T05:50:44.603Z,13.07
2022-09-25T05:52:55.841Z,13.11
2022-09-25T05:54:57.546Z,13.11
2022-09-25T05:56:59.172Z,13.05
2022-09-25T05:59:01.396Z,13.09
2022-09-25T06:01:05.747Z,13.11
2022-09-25T06:03:08.423Z,13.09
2022-09-25T06:05:10.353Z,13.08
2022-09-25T06:07:12.006Z,13.10
2022-09-25T06:09:13.609Z,13.07
2022-09-25T06:11:15.307Z,13.08
2022-09-25T06:13:16.894Z,13.11
2022-09-25T06:15:19.126Z,13.10
2022-09-25T06:17:20.828Z,13.12
2022-09-25T06:19:22.432Z,13.10
2022-09-25T06:21:24.424Z,13.12
2022-09-25T06:23:26.015Z,13.12
2022-09-25T06:25:30.439Z,13.12
2022-09-25T06:27:32.373Z,13.05
2022-09-25T06:29:34.124Z,13.13
2022-09-25T06:31:35.812Z,13.10
2022-09-25T06:33:39.304Z,13.11
2022-09-25T06:35:46.331Z,13.06
2022-09-25T06:37:47.961Z,13.06
2022-09-25T06:39:49.664Z,13.09
2022-09-25T06:41:54.077Z,13.10
2022-09-25T06:43:55.794Z,13.10
2022-09-25T06:46:02.363Z,13.08
2022-09-25T06:48:06.482Z,13.09
2022-09-25T06:50:08.461Z,13.03
2022-09-25T06:52:10.113Z,13.03
2022-09-25T06:54:11.808Z,13.04
2022-09-25T06:56:13.584Z,13.10
2022-09-25T06:58:23.327Z,13.10
2022-09-25T07:00:25.049Z,13.13
2022-09-25T07:02:45.348Z,13.13
2022-09-25T07:04:51.197Z,13.16
2022-09-25T07:06:56.618Z,13.19
2022-09-25T07:08:58.414Z,13.21
2022-09-25T07:11:01.609Z,13.22
2022-09-25T07:13:04.827Z,13.27
2022-09-25T07:15:06.959Z,13.30
2022-09-25T07:17:08.655Z,13.33
2022-09-25T07:19:10.319Z,13.36
2022-09-25T07:21:15.015Z,13.40
2022-09-25T07:23:19.426Z,13.42
2022-09-25T07:25:21.090Z,13.46
2022-09-25T07:27:22.740Z,13.49
2022-09-25T07:29:24.412Z,13.46
2022-09-25T07:31:34.027Z,13.51
2022-09-25T07:33:36.653Z,13.53
2022-09-25T07:35:38.701Z,13.58
2022-09-25T07:37:40.317Z,13.65
2022-09-25T07:39:41.957Z,13.69
2022-09-25T07:41:43.712Z,13.69
2022-09-25T07:43:46.739Z,13.74
2022-09-25T07:45:54.464Z,13.72
2022-09-25T07:47:57.864Z,13.75
2022-09-25T07:49:59.667Z,13.71
2022-09-25T07:52:02.510Z,13.74
2022-09-25T07:54:04.473Z,13.77
2022-09-25T07:56:07.305Z,13.79
2022-09-25T07:58:09.121Z,13.80
2022-09-25T08:00:11.678Z,13.88
2022-09-25T08:02:13.489Z,13.83
2022-09-25T08:04:15.213Z,14.00
2022-09-25T08:06:17.178Z,13.99
2022-09-25T08:08:19.073Z,14.00
2022-09-25T08:10:21.631Z,14.05
2022-09-25T08:12:26.364Z,14.08
2022-09-25T08:14:28.504Z,14.06
2022-09-25T08:16:30.170Z,14.13
2022-09-25T08:18:32.436Z,14.12
2022-09-25T08:20:40.589Z,14.16
2022-09-25T08:22:42.276Z,14.22
2022-09-25T08:24:43.873Z,14.19
2022-09-25T08:26:47.335Z,14.16
2022-09-25T08:28:51.026Z,14.23
2022-09-25T08:30:54.574Z,14.27
2022-09-25T08:32:56.207Z,14.29
2022-09-25T08:34:57.803Z,14.34
2022-09-25T08:36:59.489Z,14.37
2022-09-25T08:39:01.197Z,14.43
2022-09-25T08:41:23.475Z,14.47
2022-09-25T08:43:26.838Z,14.54
2022-09-25T08:45:58.759Z,14.59
2022-09-25T08:48:19.295Z,14.62
2022-09-25T08:50:25.480Z,14.71
2022-09-25T08:52:27.334Z,14.80
2022-09-25T08:54:32.013Z,14.84
2022-09-25T08:56:35.939Z,14.87
2022-09-25T08:58:46.528Z,14.93
2022-09-25T09:00:58.253Z,15.03
2022-09-25T09:03:01.598Z,15.11
2022-09-25T09:05:10.538Z,15.22
2022-09-25T09:07:26.927Z,15.30
2022-09-25T09:09:39.541Z,15.30
2022-09-25T09:11:58.015Z,15.41
2022-09-25T09:14:10.645Z,15.43
2022-09-25T09:16:24.755Z,15.54
2022-09-25T09:18:30.143Z,15.65
2022-09-25T09:20:58.244Z,15.75
2022-09-25T09:23:10.052Z,15.81
2022-09-25T09:25:45.833Z,15.91
2022-09-25T09:27:55.835Z,16.06
2022-09-25T09:30:05.692Z,16.14
2022-09-25T09:32:26.392Z,16.24
2022-09-25T09:35:06.445Z,16.38
2022-09-25T09:37:27.484Z,16.39
2022-09-25T09:39:41.073Z,16.52
2022-09-25T09:42:18.244Z,16.61
2022-09-25T09:44:38.257Z,16.67
2022-09-25T09:46:45.748Z,16.76
2022-09-25T09:49:02.369Z,16.84
2022-09-25T09:51:16.461Z,16.89
2022-09-25T09:53:30.602Z,16.97
2022-09-25T09:55:46.929Z,16.99
2022-09-25T09:58:16.086Z,17.01
2022-09-25T10:00:20.377Z,17.08
2022-09-25T10:02:24.975Z,17.14
2022-09-25T10:04:33.928Z,17.30
2022-09-25T10:06:39.650Z,17.37
2022-09-25T10:08:42.329Z,17.45
2022-09-25T10:10:59.510Z,17.39
2022-09-25T10:13:33.074Z,17.41
2022-09-25T10:15:39.991Z,17.46
2022-09-25T10:17:44.125Z,17.54
2022-09-25T10:19:52.293Z,17.58
2022-09-25T10:22:07.192Z,17.60
2022-09-25T10:24:10.898Z,17.72
2022-09-25T10:26:32.931Z,17.72
2022-09-25T10:28:36.114Z,17.82
2022-09-25T10:30:59.196Z,17.84
2022-09-25T10:33:09.362Z,17.87
2022-09-25T10:35:20.716Z,17.81
2022-09-25T10:37:23.401Z,17.75
2022-09-25T10:39:44.021Z,17.75
2022-09-25T10:41:47.620Z,17.82
2022-09-25T10:43:57.101Z,17.98
2022-09-25T10:46:14.735Z,18.10
2022-09-25T10:48:50.068Z,18.25
2022-09-25T10:51:09.781Z,18.48
2022-09-25T10:53:30.843Z,18.65
2022-09-25T10:55:37.083Z,18.83
2022-09-25T10:57:39.297Z,18.87
2022-09-25T10:59:49.493Z,18.96
2022-09-25T11:01:54.772Z,19.04
2022-09-25T11:04:25.610Z,19.12
2022-09-25T11:06:59.711Z,19.20
2022-09-25T11:09:23.852Z,19.36
2022-09-25T11:11:26.968Z,19.48
2022-09-25T11:13:37.049Z,19.59
2022-09-25T11:15:39.015Z,19.58
2022-09-25T11:17:42.989Z,19.58
2022-09-25T11:19:44.739Z,19.51
2022-09-25T11:21:56.940Z,19.54
2022-09-25T11:24:15.153Z,19.53
2022-09-25T11:26:21.760Z,19.46
2022-09-25T11:28:49.226Z,19.37
2022-09-25T11:31:20.960Z,19.49
2022-09-25T11:33:42.205Z,19.66
2022-09-25T11:36:05.077Z,19.79
2022-09-25T11:39:09.982Z,19.90
2022-09-25T11:41:29.455Z,19.84
2022-09-25T11:43:55.585Z,19.78
2022-09-25T11:46:07.534Z,19.64
2022-09-25T11:48:39.192Z,19.44
2022-09-25T11:51:14.117Z,19.35
2022-09-25T11:53:57.287Z,19.21
2022-09-25T11:56:22.754Z,19.12
2022-09-25T11:58:33.526Z,19.00
2022-09-25T12:00:41.045Z,19.00
2022-09-25T12:03:03.743Z,19.08
2022-09-25T12:05:26.968Z,19.20
2022-09-25T12:07:55.936Z,19.40
2022-09-25T12:10:30.917Z,19.53
2022-09-25T12:12:50.980Z,19.75
2022-09-25T12:15:11.022Z,19.96
2022-09-25T12:17:22.295Z,20.02
2022-09-25T12:19:44.753Z,19.99
2022-09-25T12:22:05.962Z,19.93
2022-09-25T12:24:26.204Z,19.82
2022-09-25T12:26:52.851Z,19.81
2022-09-25T12:29:13.313Z,19.85
2022-09-25T12:31:39.608Z,19.89
2022-09-25T12:34:03.612Z,19.86
2022-09-25T12:36:16.786Z,19.79
2022-09-25T12:38:44.453Z,19.77
2022-09-25T12:41:19.465Z,19.65
2022-09-25T12:43:33.682Z,19.55
2022-09-25T12:45:41.823Z,19.53
2022-09-25T12:47:56.199Z,19.48
2022-09-25T12:50:13.423Z,19.54
2022-09-25T12:52:22.880Z,19.54
2022-09-25T12:54:53.206Z,19.56
2022-09-25T12:57:13.137Z,19.56
2022-09-25T12:59:24.157Z,19.60
2022-09-25T13:01:46.104Z,19.67
2022-09-25T13:03:52.201Z,19.79
2022-09-25T13:06:07.708Z,19.84
2022-09-25T13:08:34.298Z,19.97
2022-09-25T13:10:58.178Z,20.12
2022-09-25T13:13:07.152Z,20.18
2022-09-25T13:15:13.056Z,20.34
2022-09-25T13:17:16.068Z,20.36
2022-09-25T13:19:26.572Z,20.42
2022-09-25T13:21:35.942Z,20.46
2022-09-25T13:23:41.656Z,20.42
2022-09-25T13:25:46.507Z,20.32
2022-09-25T13:27:48.589Z,20.19
2022-09-25T13:29:54.489Z,20.23
2022-09-25T13:32:34.078Z,20.12
2022-09-25T13:34:40.241Z,20.13
2022-09-25T13:36:48.312Z,20.01
2022-09-25T13:39:16.297Z,19.95
2022-09-25T13:41:18.000Z,20.04
2022-09-25T13:43:27.869Z,20.07
2022-09-25T13:45:33.820Z,20.12
2022-09-25T13:47:38.513Z,20.01
2022-09-25T13:49:50.541Z,20.07
2022-09-25T13:51:52.165Z,20.05
2022-09-25T13:54:03.302Z,20.01
2022-09-25T13:56:12.918Z,20.01
2022-09-25T13:58:28.816Z,19.98
2022-09-25T14:00:36.232Z,19.89
2022-09-25T14:02:43.138Z,19.88
2022-09-25T14:04:48.676Z,19.88
2022-09-25T14:06:58.225Z,19.97
2022-09-25T14:09:08.210Z,19.97
2022-09-25T14:11:12.777Z,19.93
2022-09-25T14:13:16.920Z,19.92
2022-09-25T14:15:35.627Z,19.95
2022-09-25T14:17:37.471Z,19.95
2022-09-25T14:19:42.927Z,19.95
2022-09-25T14:21:48.075Z,19.92
2022-09-25T14:23:52.193Z,19.97
2022-09-25T14:26:07.259Z,19.98
2022-09-25T14:28:32.692Z,19.92
2022-09-25T14:30:34.912Z,19.89
2022-09-25T14:32:55.720Z,19.93
2022-09-25T14:35:27.215Z,19.90
2022-09-25T14:37:59.358Z,19.88
2022-09-25T14:40:14.717Z,19.87
2022-09-25T14:42:30.642Z,19.86
2022-09-25T14:44:57.623Z,19.83
2022-09-25T14:46:59.569Z,19.80
2022-09-25T14:49:24.045Z,19.78
2022-09-25T14:51:41.943Z,19.78
2022-09-25T14:53:54.069Z,19.77
2022-09-25T14:55:57.935Z,19.66
2022-09-25T14:58:01.881Z,19.58
2022-09-25T15:00:07.432Z,19.56
2022-09-25T15:02:34.642Z,19.51
2022-09-25T15:04:36.575Z,19.51
2022-09-25T15:06:40.658Z,19.47
2022-09-25T15:08:42.476Z,19.40
2022-09-25T15:10:51.327Z,19.43
2022-09-25T15:12:53.383Z,19.38
2022-09-25T15:15:01.072Z,19.32
2022-09-25T15:17:22.317Z,19.23
2022-09-25T15:19:33.415Z,19.23
2022-09-25T15:21:37.094Z,19.17
2022-09-25T15:23:38.854Z,19.19
2022-09-25T15:25:45.177Z,19.16
2022-09-25T15:27:47.084Z,19.14
2022-09-25T15:29:50.021Z,19.16
2022-09-25T15:31:52.024Z,19.12
2022-09-25T15:34:27.523Z,19.13
2022-09-25T15:36:29.791Z,19.03
2022-09-25T15:38:33.544Z,19.14
2022-09-25T15:40:35.571Z,19.16
2022-09-25T15:42:37.298Z,19.23
2022-09-25T15:44:38.963Z,19.27
2022-09-25T15:46:45.628Z,19.31
2022-09-25T15:48:56.600Z,19.42
2022-09-25T15:51:03.886Z,19.43
2022-09-25T15:53:05.704Z,19.52
2022-09-25T15:55:14.744Z,19.54
2022-09-25T15:57:25.961Z,19.66
2022-09-25T15:59:59.289Z,19.58
2022-09-25T16:02:35.731Z,19.63
2022-09-25T16:04:46.667Z,19.69
2022-09-25T16:06:50.074Z,19.66
2022-09-25T16:09:09.651Z,19.68
2022-09-25T16:11:26.242Z,19.62
2022-09-25T16:13:27.957Z,19.60
2022-09-25T16:15:32.353Z,19.52
2022-09-25T16:17:41.673Z,19.48
2022-09-25T16:19:43.405Z,19.41
2022-09-25T16:21:45.198Z,19.43
2022-09-25T16:23:59.529Z,19.35
2022-09-25T16:26:01.443Z,19.31
2022-09-25T16:28:16.040Z,19.26
2022-09-25T16:30:22.579Z,19.22
2022-09-25T16:32:24.808Z,19.13
2022-09-25T16:34:34.287Z,19.12
2022-09-25T16:36:43.958Z,19.10
2022-09-25T16:39:09.870Z,19.11
2022-09-25T16:41:14.644Z,19.01
2022-09-25T16:43:26.114Z,19.01
2022-09-25T16:45:33.260Z,18.98
2022-09-25T16:47:35.204Z,18.87
2022-09-25T16:49:36.851Z,18.87
2022-09-25T16:51:45.525Z,18.93
2022-09-25T16:53:49.221Z,18.93
2022-09-25T16:55:53.458Z,18.99
2022-09-25T16:57:56.210Z,18.95
2022-09-25T16:59:59.036Z,18.97
2022-09-25T17:02:05.673Z,18.94
2022-09-25T17:07:12.845Z,18.86
2022-09-25T17:09:16.608Z,18.79
2022-09-25T17:11:20.022Z,18.72
2022-09-25T17:13:28.046Z,18.72
2022-09-25T17:15:34.544Z,18.63
2022-09-25T17:17:36.341Z,18.57
2022-09-25T17:19:38.078Z,18.58
2022-09-25T17:21:40.189Z,18.50
2022-09-25T17:23:43.909Z,18.48
2022-09-25T17:25:49.610Z,18.39
2022-09-25T17:27:51.444Z,18.41
2022-09-25T17:29:53.251Z,18.38
2022-09-25T17:31:55.066Z,18.33
2022-09-25T17:33:56.748Z,18.29
2022-09-25T17:36:03.656Z,18.25
2022-09-25T17:38:05.776Z,18.24
2022-09-25T17:40:14.285Z,18.24
2022-09-25T17:42:20.716Z,18.14
2022-09-25T17:44:23.755Z,18.08
2022-09-25T17:46:27.085Z,18.13
2022-09-25T17:49:01.614Z,18.11
2022-09-25T17:51:23.165Z,18.06
2022-09-25T17:53:49.917Z,18.05
2022-09-25T17:56:11.627Z,17.98
2022-09-25T17:58:38.142Z,17.85
2022-09-25T18:01:16.127Z,17.95
2022-09-25T18:03:28.648Z,17.97
2022-09-25T18:05:56.836Z,17.90
2022-09-25T18:08:24.005Z,17.91
2022-09-25T18:10:45.945Z,17.88
2022-09-25T18:12:57.303Z,17.82
2022-09-25T18:15:22.872Z,17.81
2022-09-25T18:17:33.320Z,17.81
2022-09-25T18:19:54.586Z,17.80
2022-09-25T18:22:14.746Z,17.79
2022-09-25T18:24:16.619Z,17.72
2022-09-25T18:26:18.320Z,17.67
2022-09-25T18:28:20.565Z,17.69
2022-09-25T18:30:24.802Z,17.70
2022-09-25T18:32:27.045Z,17.72
2022-09-25T18:34:29.694Z,17.68
2022-09-25T18:36:31.430Z,17.67
2022-09-25T18:38:33.162Z,17.71
2022-09-25T18:40:44.924Z,17.70
2022-09-25T18:42:48.266Z,17.69
2022-09-25T18:44:50.170Z,17.64
2022-09-25T18:46:53.162Z,17.66
2022-09-25T18:48:57.720Z,17.63
2022-09-25T18:50:59.329Z,17.55
2022-09-25T18:53:01.021Z,17.43
2022-09-25T18:55:03.228Z,17.52
2022-09-25T18:57:04.857Z,17.49
2022-09-25T18:59:07.696Z,17.35
2022-09-25T19:01:09.497Z,17.39
2022-09-25T19:03:11.247Z,17.43
2022-09-25T19:05:17.150Z,17.44
2022-09-25T19:07:19.770Z,17.35
2022-09-25T19:09:24.608Z,17.22
2022-09-25T19:11:27.572Z,17.17
2022-09-25T19:13:30.063Z,17.14
2022-09-25T19:15:31.921Z,17.08
2022-09-25T19:17:35.764Z,17.05
2022-09-25T19:19:40.319Z,17.07
2022-09-25T19:21:41.969Z,17.00
2022-09-25T19:23:43.839Z,17.01
2022-09-25T19:26:02.717Z,17.01
2022-09-25T19:28:04.498Z,16.93
2022-09-25T19:30:06.700Z,17.00
2022-09-25T19:32:11.817Z,16.98
2022-09-25T19:34:13.458Z,16.94
2022-09-25T19:36:30.251Z,16.94
2022-09-25T19:38:37.084Z,16.90
2022-09-25T19:40:46.633Z,16.88
2022-09-25T19:42:49.942Z,16.87
2022-09-25T19:44:52.637Z,16.74
2022-09-25T19:46:54.556Z,16.78
2022-09-25T19:48:56.279Z,16.77
2022-09-25T19:50:57.895Z,16.68
2022-09-25T19:53:00.858Z,16.77
2022-09-25T19:55:03.003Z,16.79
2022-09-25T19:57:09.089Z,16.76
2022-09-25T19:59:15.229Z,16.65
2022-09-25T20:01:20.710Z,16.58
2022-09-25T20:03:23.738Z,16.49
2022-09-25T20:05:25.845Z,16.45
2022-09-25T20:07:27.493Z,16.40
2022-09-25T20:09:29.090Z,16.47
2022-09-25T20:11:32.260Z,16.44
2022-09-25T20:13:34.001Z,16.43
2022-09-25T20:15:36.087Z,16.48
2022-09-25T20:17:37.750Z,16.47
2022-09-25T20:19:39.429Z,16.36
2022-09-25T20:21:41.782Z,16.41
2022-09-25T20:23:43.972Z,16.35
2022-09-25T20:25:45.659Z,16.37
2022-09-25T20:27:48.876Z,16.34
2022-09-25T20:29:50.536Z,16.25
2022-09-25T20:31:52.428Z,16.28
2022-09-25T20:33:54.833Z,16.32
2022-09-25T20:36:00.008Z,16.35
2022-09-25T20:38:01.933Z,16.28
2022-09-25T20:40:04.000Z,16.30
2022-09-25T20:42:06.222Z,16.28
2022-09-25T20:44:08.128Z,16.38
2022-09-25T20:46:12.593Z,16.34
2022-09-25T20:48:17.949Z,16.34
2022-09-25T20:50:19.969Z,16.22
2022-09-25T20:52:21.620Z,16.28
2022-09-25T20:54:25.318Z,16.09
2022-09-25T20:56:28.744Z,16.18
2022-09-25T20:58:30.477Z,16.18
2022-09-25T21:00:49.895Z,16.14
2022-09-25T21:03:12.125Z,15.97
2022-09-25T21:05:15.533Z,16.11
2022-09-25T21:07:17.519Z,16.08
2022-09-25T21:09:25.552Z,16.19
2022-09-25T21:11:29.940Z,16.18
2022-09-25T21:13:33.919Z,16.15
2022-09-25T21:15:36.247Z,16.14
2022-09-25T21:17:37.866Z,16.11
2022-09-25T21:19:40.272Z,16.03
2022-09-25T21:21:42.666Z,16.12
2022-09-25T21:23:51.411Z,16.02
2022-09-25T21:25:53.020Z,16.04
2022-09-25T21:27:54.718Z,16.11
2022-09-25T21:29:56.342Z,16.13
2022-09-25T21:31:58.092Z,16.12
2022-09-25T21:34:00.163Z,16.08
2022-09-25T21:36:02.769Z,16.06
2022-09-25T21:38:04.393Z,16.15
2022-09-25T21:40:06.700Z,16.13
2022-09-25T21:42:08.332Z,16.18
2022-09-25T21:44:13.921Z,16.16
2022-09-25T21:46:18.387Z,16.15
2022-09-25T21:48:20.632Z,16.19
2022-09-25T21:50:22.277Z,16.05
2022-09-25T21:52:25.650Z,16.08
2022-09-25T21:54:30.561Z,16.10
2022-09-25T21:56:33.213Z,16.11
2022-09-25T21:58:35.611Z,15.99
2022-09-25T22:00:48.494Z,15.95
2022-09-25T22:02:50.369Z,16.02
2022-09-25T22:04:52.077Z,15.96
2022-09-25T22:06:53.966Z,15.97
2022-09-25T22:08:58.782Z,15.94
2022-09-25T22:11:01.900Z,15.90
2022-09-25T22:13:03.610Z,15.91
2022-09-25T22:15:06.130Z,15.86
2022-09-25T22:17:08.162Z,15.75
2022-09-25T22:19:26.842Z,15.76
2022-09-25T22:21:30.707Z,15.82
2022-09-25T22:23:32.524Z,15.78
2022-09-25T22:25:34.553Z,15.80
2022-09-25T22:27:40.394Z,15.63
2022-09-25T22:29:42.246Z,15.63
2022-09-25T22:31:44.547Z,15.70
2022-09-25T22:33:48.081Z,15.67
2022-09-25T22:35:59.310Z,15.57
2022-09-25T22:38:00.995Z,15.62
2022-09-25T22:40:02.688Z,15.55
2022-09-25T22:42:04.575Z,15.60
2022-09-25T22:44:06.216Z,15.42
2022-09-25T22:46:09.702Z,15.41
2022-09-25T22:48:11.363Z,15.33
2022-09-25T22:50:13.049Z,15.42
2022-09-25T22:52:14.654Z,15.34
2022-09-25T22:54:16.871Z,15.44
2022-09-25T22:56:33.151Z,15.30
2022-09-25T22:58:34.797Z,15.42
2022-09-25T23:00:36.394Z,15.39
2022-09-25T23:02:38.035Z,15.42
2022-09-25T23:04:39.702Z,15.36
2022-09-25T23:06:41.704Z,15.34
2022-09-25T23:08:43.382Z,15.38
2022-09-25T23:11:06.671Z,15.38
2022-09-25T23:13:09.034Z,15.20
2022-09-25T23:15:11.121Z,15.29
2022-09-25T23:17:12.957Z,15.36
2022-09-25T23:19:15.131Z,15.36
2022-09-25T23:21:16.892Z,15.34
2022-09-25T23:23:18.513Z,15.36
2022-09-25T23:25:23.700Z,15.27
2022-09-25T23:27:28.755Z,15.20
2022-09-25T23:29:30.973Z,15.24
2022-09-25T23:31:34.362Z,15.14
2022-09-25T23:33:36.698Z,15.18
2022-09-25T23:35:38.469Z,15.11
2022-09-25T23:37:40.247Z,14.96
2022-09-25T23:39:41.896Z,15.06
2022-09-25T23:41:43.957Z,15.08
2022-09-25T23:43:51.151Z,15.04
2022-09-25T23:46:09.774Z,14.97
2022-09-25T23:48:11.960Z,14.97
2022-09-25T23:50:14.299Z,14.97
2022-09-25T23:52:22.043Z,15.06
2022-09-25T23:54:28.352Z,15.09
2022-09-25T23:56:33.006Z,15.12
2022-09-25T23:58:35.484Z,15.05
